createdAt,value
2022-08-07T00:00:51.067Z,18.01
2022-08-07T00:03:38.367Z,17.99
2022-08-07T00:06:33.993Z,17.97
2022-08-07T00:09:22.383Z,17.98
2022-08-07T00:12:09.772Z,17.90
2022-08-07T00:14:58.860Z,17.68
2022-08-07T00:17:45.475Z,17.93
2022-08-07T00:20:35.519Z,17.76
2022-08-07T00:23:24.573Z,17.73
2022-08-07T00:26:31.257Z,17.75
2022-08-07T00:29:31.421Z,17.57
2022-08-07T00:32:28.243Z,17.65
2022-08-07T00:35:18.986Z,17.78
2022-08-07T00:38:08.992Z,17.70
2022-08-07T00:41:00.605Z,17.68
2022-08-07T00:44:01.016Z,17.64
2022-08-07T00:46:49.131Z,17.79
2022-08-07T00:50:20.812Z,17.73
2022-08-07T00:52:47.491Z,17.68
2022-08-07T00:56:02.736Z,17.65
2022-08-07T00:58:49.755Z,17.49
2022-08-07T01:01:44.080Z,17.63
2022-08-07T01:04:37.460Z,17.50
2022-08-07T01:07:31.216Z,17.39
2022-08-07T01:10:18.287Z,17.46
2022-08-07T01:13:04.952Z,17.43
2022-08-07T01:16:00.870Z,17.62
2022-08-07T01:18:52.203Z,17.56
2022-08-07T01:21:39.553Z,17.38
2022-08-07T01:24:30.721Z,17.41
2022-08-07T01:27:19.615Z,17.44
2022-08-07T01:30:07.921Z,17.45
2022-08-07T01:32:58.252Z,17.38
2022-08-07T01:35:53.281Z,17.51
2022-08-07T01:38:45.706Z,17.42
2022-08-07T01:41:55.074Z,17.35
2022-08-07T01:44:49.258Z,17.38
2022-08-07T01:48:18.400Z,17.41
2022-08-07T01:50:47.593Z,17.31
2022-08-07T01:54:09.241Z,17.23
2022-08-07T01:56:55.403Z,16.95
2022-08-07T01:59:48.302Z,16.96
2022-08-07T02:03:15.952Z,16.89
2022-08-07T02:06:30.876Z,17.10
2022-08-07T02:09:52.041Z,16.92
2022-08-07T02:12:29.389Z,16.99
2022-08-07T02:15:23.367Z,17.12
2022-08-07T02:18:13.440Z,17.14
2022-08-07T02:21:06.428Z,17.16
2022-08-07T02:23:54.429Z,16.63
2022-08-07T02:26:43.414Z,17.04
2022-08-07T02:29:31.166Z,16.97
2022-08-07T02:32:23.174Z,16.94
2022-08-07T02:35:13.298Z,16.86
2022-08-07T02:38:11.432Z,16.61
2022-08-07T02:41:04.043Z,16.52
2022-08-07T02:43:54.769Z,16.39
2022-08-07T02:46:46.869Z,16.36
2022-08-07T02:49:58.381Z,16.55
2022-08-07T02:53:03.244Z,16.63
2022-08-07T02:56:03.014Z,16.50
2022-08-07T02:58:55.553Z,16.24
2022-08-07T03:01:51.980Z,16.28
2022-08-07T03:04:42.566Z,16.26
2022-08-07T03:07:43.228Z,16.25
2022-08-07T03:10:53.423Z,16.34
2022-08-07T03:13:50.213Z,16.10
2022-08-07T03:16:52.378Z,15.95
2022-08-07T03:19:43.495Z,16.06
2022-08-07T03:22:44.393Z,16.03
2022-08-07T03:25:44.898Z,15.76
2022-08-07T03:28:45.082Z,15.73
2022-08-07T03:31:42.375Z,15.66
2022-08-07T03:34:39.235Z,15.78
2022-08-07T03:37:45.878Z,15.79
2022-08-07T03:40:44.271Z,15.99
2022-08-07T03:43:37.839Z,16.00
2022-08-07T03:46:33.549Z,15.70
2022-08-07T03:49:20.255Z,16.00
2022-08-07T03:52:08.332Z,15.96
2022-08-07T03:55:10.523Z,15.81
2022-08-07T03:58:33.726Z,16.20
2022-08-07T04:01:11.662Z,16.15
2022-08-07T04:04:04.754Z,16.26
2022-08-07T04:06:54.115Z,16.09
2022-08-07T04:09:50.227Z,16.25
2022-08-07T04:12:43.455Z,16.15
2022-08-07T04:15:32.196Z,16.00
2022-08-07T04:18:56.560Z,16.21
2022-08-07T04:21:24.910Z,16.40
2022-08-07T04:24:30.329Z,16.67
2022-08-07T04:27:35.289Z,17.22
2022-08-07T04:30:43.799Z,17.51
2022-08-07T04:33:39.174Z,17.68
2022-08-07T04:36:26.214Z,18.02
2022-08-07T04:39:12.963Z,18.34
2022-08-07T04:42:08.048Z,18.64
2022-08-07T04:45:02.941Z,18.75
2022-08-07T04:48:23.947Z,19.43
2022-08-07T04:51:19.546Z,19.63
2022-08-07T04:54:41.462Z,19.54
2022-08-07T04:58:10.969Z,19.90
2022-08-07T05:01:18.255Z,20.08
2022-08-07T05:04:12.271Z,20.17
2022-08-07T05:07:20.431Z,20.24
2022-08-07T05:10:36.157Z,20.28
2022-08-07T05:14:52.820Z,20.36
2022-08-07T05:16:44.128Z,20.36
2022-08-07T05:19:49.010Z,20.71
2022-08-07T05:22:37.351Z,20.89
2022-08-07T05:25:36.742Z,20.91
2022-08-07T05:28:35.660Z,21.31
2022-08-07T05:31:35.137Z,21.35
2022-08-07T05:34:27.666Z,21.67
2022-08-07T05:37:25.316Z,21.78
2022-08-07T05:40:22.569Z,21.89
2022-08-07T05:43:10.448Z,22.02
2022-08-07T05:45:58.361Z,21.91
2022-08-07T05:48:57.402Z,22.22
2022-08-07T05:51:47.285Z,21.99
2022-08-07T05:54:53.211Z,21.97
2022-08-07T05:57:44.803Z,22.30
2022-08-07T06:00:35.116Z,22.22
2022-08-07T06:03:27.343Z,22.20
2022-08-07T06:06:34.637Z,22.40
2022-08-07T06:10:03.209Z,22.80
2022-08-07T06:12:34.486Z,22.96
2022-08-07T06:15:39.127Z,23.04
2022-08-07T06:18:40.156Z,23.12
2022-08-07T06:22:15.472Z,23.06
2022-08-07T06:24:52.604Z,23.27
2022-08-07T06:28:00.636Z,23.28
2022-08-07T06:30:52.881Z,23.26
2022-08-07T06:33:42.997Z,23.19
2022-08-07T06:36:35.591Z,23.16
2022-08-07T06:40:16.345Z,23.01
2022-08-07T06:42:38.476Z,23.27
2022-08-07T06:45:45.504Z,23.29
2022-08-07T06:48:35.930Z,22.98
2022-08-07T06:51:33.227Z,22.55
2022-08-07T06:55:32.993Z,22.66
2022-08-07T06:57:43.493Z,22.57
2022-08-07T07:00:46.446Z,22.52
2022-08-07T07:03:47.647Z,22.80
2022-08-07T07:07:19.316Z,22.87
2022-08-07T07:10:28.954Z,22.95
2022-08-07T07:13:57.409Z,22.84
2022-08-07T07:16:30.344Z,22.82
2022-08-07T07:19:55.736Z,22.58
2022-08-07T07:22:35.627Z,22.88
2022-08-07T07:26:34.662Z,22.84
2022-08-07T07:29:23.493Z,22.88
2022-08-07T07:31:52.105Z,22.69
2022-08-07T07:34:45.286Z,22.71
2022-08-07T07:37:45.551Z,22.60
2022-08-07T07:40:41.918Z,22.58
2022-08-07T07:43:47.829Z,22.59
2022-08-07T07:46:55.295Z,22.93
2022-08-07T07:50:32.870Z,23.28
2022-08-07T07:52:57.343Z,23.33
2022-08-07T07:55:54.661Z,23.41
2022-08-07T07:58:48.101Z,23.00
2022-08-07T08:02:05.224Z,23.09
2022-08-07T08:04:50.462Z,23.06
2022-08-07T08:07:42.172Z,22.89
2022-08-07T08:13:53.208Z,22.66
2022-08-07T08:18:36.998Z,22.43
2022-08-07T08:20:18.657Z,22.10
2022-08-07T08:23:31.978Z,22.52
2022-08-07T08:26:41.965Z,22.52
2022-08-07T08:29:31.382Z,22.34
2022-08-07T08:32:25.102Z,22.28
2022-08-07T08:35:22.953Z,22.21
2022-08-07T08:38:25.822Z,22.43
2022-08-07T08:41:26.055Z,22.57
2022-08-07T08:44:44.567Z,22.57
2022-08-07T08:47:52.840Z,22.59
2022-08-07T08:50:55.102Z,22.64
2022-08-07T08:53:54.576Z,22.73
2022-08-07T08:56:47.565Z,22.98
2022-08-07T08:59:52.262Z,23.19
2022-08-07T09:02:57.778Z,23.06
2022-08-07T09:05:50.763Z,22.85
2022-08-07T09:08:59.033Z,22.74
2022-08-07T09:12:01.701Z,22.25
2022-08-07T09:16:22.307Z,22.06
2022-08-07T09:18:53.331Z,21.79
2022-08-07T09:22:09.929Z,21.68
2022-08-07T09:25:17.499Z,21.51
2022-08-07T09:30:02.337Z,21.74
2022-08-07T09:31:38.533Z,22.06
2022-08-07T09:34:33.016Z,22.01
2022-08-07T09:37:54.013Z,21.74
2022-08-07T09:41:19.935Z,22.23
2022-08-07T09:45:03.362Z,22.73
2022-08-07T09:48:30.093Z,23.19
2022-08-07T09:52:16.073Z,23.65
2022-08-07T09:56:03.988Z,23.58
2022-08-07T09:59:14.024Z,23.06
2022-08-07T10:02:29.523Z,22.71
2022-08-07T10:06:01.199Z,23.06
2022-08-07T10:09:15.421Z,23.17
2022-08-07T10:12:26.438Z,23.39
2022-08-07T10:15:28.353Z,23.41
2022-08-07T10:18:21.096Z,23.38
2022-08-07T10:22:11.994Z,23.66
2022-08-07T10:24:50.229Z,23.57
2022-08-07T10:27:51.417Z,23.71
2022-08-07T10:30:50.927Z,23.67
2022-08-07T10:34:05.669Z,23.34
2022-08-07T10:37:19.094Z,23.15
2022-08-07T10:40:51.061Z,23.27
2022-08-07T10:43:51.117Z,23.29
2022-08-07T10:47:51.563Z,23.33
2022-08-07T10:50:51.115Z,23.09
2022-08-07T10:53:48.017Z,22.99
2022-08-07T10:56:50.174Z,23.08
2022-08-07T10:59:57.005Z,23.29
2022-08-07T11:03:14.559Z,23.69
2022-08-07T11:06:23.693Z,23.76
2022-08-07T11:10:07.606Z,23.84
2022-08-07T11:12:43.321Z,23.82
2022-08-07T11:15:39.413Z,23.71
2022-08-07T11:18:55.746Z,23.47
2022-08-07T11:21:53.631Z,23.04
2022-08-07T11:25:12.824Z,22.66
2022-08-07T11:28:32.759Z,22.43
2022-08-07T11:32:02.781Z,22.24
2022-08-07T11:34:53.966Z,22.10
2022-08-07T11:38:22.109Z,22.19
2022-08-07T11:41:18.299Z,22.19
2022-08-07T11:44:52.650Z,22.36
2022-08-07T11:47:59.536Z,22.40
2022-08-07T11:51:42.039Z,22.56
2022-08-07T11:54:55.041Z,22.67
2022-08-07T11:57:58.438Z,22.71
2022-08-07T12:01:05.078Z,22.69
2022-08-07T12:04:21.040Z,22.95
2022-08-07T12:07:27.152Z,22.85
2022-08-07T12:10:29.045Z,22.77
2022-08-07T12:13:35.317Z,22.71
2022-08-07T12:16:41.786Z,22.56
2022-08-07T12:19:56.840Z,22.62
2022-08-07T12:24:04.964Z,22.70
2022-08-07T12:26:46.960Z,22.54
2022-08-07T12:29:55.898Z,22.72
2022-08-07T12:32:48.344Z,22.82
2022-08-07T12:35:37.563Z,22.81
2022-08-07T12:38:42.501Z,22.79
2022-08-07T12:41:49.381Z,22.87
2022-08-07T12:44:44.915Z,23.10
2022-08-07T12:48:03.975Z,23.06
2022-08-07T12:51:12.887Z,22.95
2022-08-07T12:54:38.133Z,23.11
2022-08-07T12:57:39.199Z,23.23
2022-08-07T13:00:50.992Z,23.42
2022-08-07T13:04:04.825Z,23.35
2022-08-07T13:07:09.728Z,23.26
2022-08-07T13:10:51.977Z,23.34
2022-08-07T13:14:01.003Z,23.48
2022-08-07T13:17:18.320Z,23.61
2022-08-07T13:20:46.862Z,23.62
2022-08-07T13:24:00.689Z,23.50
2022-08-07T13:28:11.076Z,23.15
2022-08-07T13:31:01.438Z,23.13
2022-08-07T13:34:30.446Z,23.15
2022-08-07T13:37:11.041Z,22.93
2022-08-07T13:40:35.322Z,22.86
2022-08-07T13:43:52.528Z,22.65
2022-08-07T13:46:49.344Z,22.55
2022-08-07T13:50:35.436Z,22.52
2022-08-07T13:52:48.331Z,22.62
2022-08-07T13:55:37.023Z,22.75
2022-08-07T13:58:54.202Z,22.76
2022-08-07T14:01:59.155Z,22.78
2022-08-07T14:04:55.653Z,22.89
2022-08-07T14:07:59.628Z,22.89
2022-08-07T14:11:14.863Z,23.06
2022-08-07T14:14:08.935Z,23.03
2022-08-07T14:17:00.080Z,22.98
2022-08-07T14:20:41.970Z,22.85
2022-08-07T14:23:58.864Z,22.84
2022-08-07T14:26:50.245Z,22.94
2022-08-07T14:30:06.320Z,22.97
2022-08-07T14:32:59.540Z,22.97
2022-08-07T14:35:50.076Z,22.93
2022-08-07T14:38:50.601Z,22.94
2022-08-07T14:42:20.142Z,22.91
2022-08-07T14:44:53.590Z,22.96
2022-08-07T14:47:42.484Z,22.97
2022-08-07T14:54:03.713Z,22.94
2022-08-07T14:56:53.722Z,22.82
2022-08-07T15:00:04.954Z,22.71
2022-08-07T15:02:57.030Z,22.45
2022-08-07T15:05:54.710Z,22.47
2022-08-07T15:08:54.629Z,22.41
2022-08-07T15:12:05.136Z,22.42
2022-08-07T15:15:07.658Z,22.42
2022-08-07T15:17:58.911Z,22.51
2022-08-07T15:27:23.264Z,22.52
2022-08-07T15:30:16.098Z,23.02
2022-08-07T15:33:05.643Z,22.99
2022-08-07T15:36:08.159Z,22.85
2022-08-07T15:39:13.328Z,22.87
2022-08-07T15:45:58.207Z,22.82
2022-08-07T15:50:05.863Z,22.72
2022-08-07T15:53:53.137Z,22.61
2022-08-07T15:57:27.835Z,22.61
2022-08-07T16:00:50.898Z,22.61
2022-08-07T16:03:47.328Z,22.62
2022-08-07T16:06:55.065Z,22.57
2022-08-07T16:09:57.164Z,22.66
2022-08-07T16:13:04.569Z,22.55
2022-08-07T16:16:48.784Z,22.35
2022-08-07T16:19:43.051Z,22.53
2022-08-07T16:22:55.253Z,22.69
2022-08-07T16:26:35.947Z,22.77
2022-08-07T16:30:10.182Z,22.79
2022-08-07T16:32:53.983Z,22.96
2022-08-07T16:35:58.794Z,23.02
2022-08-07T16:39:14.865Z,23.02
2022-08-07T16:42:21.762Z,22.84
2022-08-07T16:46:20.922Z,22.65
2022-08-07T16:49:04.297Z,22.48
2022-08-07T16:52:51.397Z,22.40
2022-08-07T16:55:20.002Z,22.33
2022-08-07T16:58:23.765Z,22.07
2022-08-07T17:01:34.242Z,22.04
2022-08-07T17:04:57.857Z,22.16
2022-08-07T17:07:57.976Z,22.11
2022-08-07T17:10:55.842Z,22.07
2022-08-07T17:14:18.991Z,21.98
2022-08-07T17:17:07.062Z,21.91
2022-08-07T17:20:01.131Z,21.83
2022-08-07T17:23:00.351Z,21.77
2022-08-07T17:26:22.551Z,21.74
2022-08-07T17:30:14.048Z,21.64
2022-08-07T17:32:52.163Z,21.60
2022-08-07T17:35:57.545Z,21.56
2022-08-07T17:38:50.887Z,21.53
2022-08-07T17:42:04.761Z,21.43
2022-08-07T17:44:54.687Z,21.31
2022-08-07T17:48:01.232Z,21.28
2022-08-07T17:50:58.028Z,21.18
2022-08-07T17:54:06.440Z,21.07
2022-08-07T17:57:19.844Z,21.03
2022-08-07T18:00:12.239Z,20.97
2022-08-07T18:04:04.005Z,20.92
2022-08-07T18:07:19.185Z,20.88
2022-08-07T18:10:10.390Z,20.76
2022-08-07T18:13:34.044Z,20.89
2022-08-07T18:16:58.412Z,21.06
2022-08-07T18:21:03.067Z,20.95
2022-08-07T18:23:41.883Z,21.27
2022-08-07T18:26:51.026Z,21.39
2022-08-07T18:30:30.643Z,21.51
2022-08-07T18:33:38.790Z,21.47
2022-08-07T18:38:56.080Z,21.36
2022-08-07T18:40:57.819Z,21.30
2022-08-07T18:43:57.475Z,21.22
2022-08-07T18:47:11.750Z,20.83
2022-08-07T18:55:42.408Z,21.03
2022-08-07T18:59:03.727Z,20.96
2022-08-07T19:02:31.630Z,20.92
2022-08-07T19:06:02.274Z,20.86
2022-08-07T19:09:09.603Z,20.81
2022-08-07T19:12:49.047Z,20.76
2022-08-07T19:16:43.763Z,20.70
2022-08-07T19:19:50.559Z,20.65
2022-08-07T19:22:47.811Z,20.61
2022-08-07T19:26:24.928Z,20.56
2022-08-07T19:30:57.028Z,20.49
2022-08-07T19:32:45.583Z,20.42
2022-08-07T19:35:34.734Z,20.36
2022-08-07T19:38:22.986Z,20.28
2022-08-07T19:41:10.381Z,20.15
2022-08-07T19:44:02.745Z,20.19
2022-08-07T19:47:11.938Z,20.19
2022-08-07T19:50:41.268Z,20.15
2022-08-07T19:54:31.590Z,20.04
2022-08-07T19:57:56.709Z,19.97
2022-08-07T19:59:58.620Z,19.98
2022-08-07T20:03:02.648Z,20.01
2022-08-07T20:06:01.159Z,19.99
2022-08-07T20:08:50.886Z,19.94
2022-08-07T20:12:22.528Z,19.92
2022-08-07T20:14:58.572Z,19.89
2022-08-07T20:18:01.593Z,19.92
2022-08-07T20:20:59.597Z,19.85
2022-08-07T20:24:00.165Z,19.76
2022-08-07T20:26:52.269Z,19.59
2022-08-07T20:29:56.721Z,19.80
2022-08-07T20:32:48.188Z,19.83
2022-08-07T20:36:02.931Z,19.82
2022-08-07T20:39:00.810Z,19.85
2022-08-07T20:42:07.168Z,19.85
2022-08-07T20:45:01.189Z,19.85
2022-08-07T20:47:56.543Z,19.84
2022-08-07T20:50:45.445Z,19.85
2022-08-07T20:54:04.132Z,19.63
2022-08-07T20:56:49.932Z,19.32
2022-08-07T21:00:06.155Z,19.66
2022-08-07T21:02:58.603Z,19.55
2022-08-07T21:05:56.499Z,19.38
2022-08-07T21:08:47.901Z,19.15
2022-08-07T21:11:50.526Z,19.06
2022-08-07T21:14:39.414Z,19.10
2022-08-07T21:18:02.416Z,19.03
2022-08-07T21:20:48.329Z,19.28
2022-08-07T21:24:01.132Z,19.38
2022-08-07T21:27:01.991Z,19.37
2022-08-07T21:30:06.282Z,19.23
2022-08-07T21:33:04.282Z,19.06
2022-08-07T21:36:31.159Z,18.81
2022-08-07T21:39:47.529Z,18.93
2022-08-07T21:42:56.536Z,19.01
2022-08-07T21:46:09.180Z,19.14
2022-08-07T21:49:21.088Z,19.12
2022-08-07T21:52:44.759Z,19.15
2022-08-07T21:55:46.754Z,19.12
2022-08-07T21:58:56.904Z,19.00
2022-08-07T22:02:10.340Z,18.24
2022-08-07T22:05:01.386Z,18.05
2022-08-07T22:07:58.922Z,18.35
2022-08-07T22:10:50.224Z,18.45
2022-08-07T22:13:52.593Z,18.67
2022-08-07T22:16:54.992Z,18.74
2022-08-07T22:20:23.246Z,18.80
2022-08-07T22:23:17.870Z,18.76
2022-08-07T22:26:31.216Z,18.74
2022-08-07T22:29:37.743Z,18.88
2022-08-07T22:33:15.655Z,18.70
2022-08-07T22:36:30.956Z,18.71
2022-08-07T22:39:52.826Z,18.71
2022-08-07T22:42:53.955Z,18.49
2022-08-07T22:47:02.948Z,18.58
2022-08-07T22:49:33.924Z,18.74
2022-08-07T22:52:50.757Z,18.80
2022-08-07T22:55:43.528Z,18.65
2022-08-07T22:58:59.393Z,18.54
2022-08-07T23:02:11.414Z,18.32
2022-08-07T23:06:09.714Z,18.36
2022-08-07T23:10:04.823Z,18.38
2022-08-07T23:12:36.738Z,18.50
2022-08-07T23:16:05.670Z,18.54
2022-08-07T23:19:17.491Z,18.33
2022-08-07T23:22:56.673Z,18.52
2022-08-07T23:26:07.554Z,18.48
2022-08-07T23:29:43.975Z,18.51
2022-08-07T23:34:21.611Z,18.34
2022-08-07T23:36:05.059Z,18.07
2022-08-07T23:39:02.471Z,18.19
2022-08-07T23:42:25.328Z,18.19
2022-08-07T23:45:33.217Z,17.82
2022-08-07T23:49:13.676Z,17.75
2022-08-07T23:52:59.451Z,17.31
2022-08-07T23:55:53.388Z,17.10
2022-08-07T23:58:55.183Z,17.58
